sensor_id;sensor_type;location;lat;lon;timestamp;P1;durP1;ratioP1;P2;durP2;ratioP2
24631;SDS011;59977;48.782;9.190;2023-06-26T00:02:21;14.73;;;8.55;;
24631;SDS011;59977;48.782;9.190;2023-06-26T00:04:47;12.07;;;9.63;;
24631;SDS011;59977;48.782;9.190;2023-06-26T00:07:13;8.90;;;7.18;;
24631;SDS011;59977;48.782;9.190;2023-06-26T00:09:39;12.73;;;7.57;;
24631;SDS011;59977;48.782;9.190;2023-06-26T00:12:06;14.38;;;6.93;;
24631;SDS011;59977;48.782;9.190;2023-06-26T00:14:32;12.95;;;7.47;;
24631;SDS011;59977;48.782;9.190;2023-06-26T00:16:58;11.40;;;7.85;;
24631;SDS011;59977;48.782;9.190;2023-06-26T00:19:24;12.02;;;8.20;;
24631;SDS011;59977;48.782;9.190;2023-06-26T00:21:50;10.93;;;7.80;;
24631;SDS011;59977;48.782;9.190;2023-06-26T00:24:17;9.68;;;7.22;;
24631;SDS011;59977;48.782;9.190;2023-06-26T00:26:43;10.80;;;7.68;;
24631;SDS011;59977;48.782;9.190;2023-06-26T00:29:09;10.88;;;7.57;;
24631;SDS011;59977;48.782;9.190;2023-06-26T00:31:35;10.32;;;7.97;;
24631;SDS011;59977;48.782;9.190;2023-06-26T00:34:01;12.95;;;8.05;;
24631;SDS011;59977;48.782;9.190;2023-06-26T00:36:27;9.52;;;7.68;;
24631;SDS011;59977;48.782;9.190;2023-06-26T00:38:53;14.43;;;7.60;;
24631;SDS011;59977;48.782;9.190;2023-06-26T00:41:19;9.63;;;7.60;;
24631;SDS011;59977;48.782;9.190;2023-06-26T00:43:45;10.13;;;7.95;;
24631;SDS011;59977;48.782;9.190;2023-06-26T00:46:14;9.73;;;7.43;;
24631;SDS011;59977;48.782;9.190;2023-06-26T00:48:44;10.90;;;8.27;;
24631;SDS011;59977;48.782;9.190;2023-06-26T00:51:10;11.80;;;7.85;;
24631;SDS011;59977;48.782;9.190;2023-06-26T00:53:36;15.98;;;8.40;;
24631;SDS011;59977;48.782;9.190;2023-06-26T00:56:02;13.38;;;8.18;;
24631;SDS011;59977;48.782;9.190;2023-06-26T00:58:28;12.48;;;7.80;;
24631;SDS011;59977;48.782;9.190;2023-06-26T01:00:54;13.80;;;8.07;;
24631;SDS011;59977;48.782;9.190;2023-06-26T01:03:23;13.48;;;7.88;;
24631;SDS011;59977;48.782;9.190;2023-06-26T01:05:51;13.13;;;7.25;;
24631;SDS011;59977;48.782;9.190;2023-06-26T01:08:18;10.10;;;7.43;;
24631;SDS011;59977;48.782;9.190;2023-06-26T01:10:44;10.25;;;7.63;;
24631;SDS011;59977;48.782;9.190;2023-06-26T01:13:11;11.68;;;7.45;;
24631;SDS011;59977;48.782;9.190;2023-06-26T01:15:38;15.73;;;8.82;;
24631;SDS011;59977;48.782;9.190;2023-06-26T01:18:04;18.90;;;9.00;;
24631;SDS011;59977;48.782;9.190;2023-06-26T01:20:31;22.50;;;9.02;;
24631;SDS011;59977;48.782;9.190;2023-06-26T01:25:32;16.10;;;8.23;;
24631;SDS011;59977;48.782;9.190;2023-06-26T01:28:04;19.52;;;8.00;;
24631;SDS011;59977;48.782;9.190;2023-06-26T01:30:31;14.77;;;8.10;;
24631;SDS011;59977;48.782;9.190;2023-06-26T01:32:57;14.40;;;8.38;;
24631;SDS011;59977;48.782;9.190;2023-06-26T01:35:24;21.25;;;8.32;;
24631;SDS011;59977;48.782;9.190;2023-06-26T01:37:50;13.75;;;9.10;;
24631;SDS011;59977;48.782;9.190;2023-06-26T01:40:16;13.68;;;8.75;;
24631;SDS011;59977;48.782;9.190;2023-06-26T01:42:42;14.98;;;8.43;;
24631;SDS011;59977;48.782;9.190;2023-06-26T01:45:12;23.58;;;8.32;;
24631;SDS011;59977;48.782;9.190;2023-06-26T01:47:40;12.02;;;8.45;;
24631;SDS011;59977;48.782;9.190;2023-06-26T01:50:09;17.42;;;8.82;;
24631;SDS011;59977;48.782;9.190;2023-06-26T01:52:43;12.88;;;8.48;;
24631;SDS011;59977;48.782;9.190;2023-06-26T01:58:04;11.88;;;8.25;;
24631;SDS011;59977;48.782;9.190;2023-06-26T02:00:30;11.38;;;8.18;;
24631;SDS011;59977;48.782;9.190;2023-06-26T02:02:57;12.70;;;8.30;;
24631;SDS011;59977;48.782;9.190;2023-06-26T02:05:23;14.30;;;8.55;;
24631;SDS011;59977;48.782;9.190;2023-06-26T02:07:49;14.32;;;8.65;;
24631;SDS011;59977;48.782;9.190;2023-06-26T02:10:16;14.82;;;7.97;;
24631;SDS011;59977;48.782;9.190;2023-06-26T02:12:42;12.57;;;7.88;;
24631;SDS011;59977;48.782;9.190;2023-06-26T02:15:08;11.90;;;7.70;;
24631;SDS011;59977;48.782;9.190;2023-06-26T02:17:34;16.23;;;8.32;;
24631;SDS011;59977;48.782;9.190;2023-06-26T02:20:00;10.40;;;8.10;;
24631;SDS011;59977;48.782;9.190;2023-06-26T02:22:26;14.32;;;7.75;;
24631;SDS011;59977;48.782;9.190;2023-06-26T02:24:53;12.07;;;7.93;;
24631;SDS011;59977;48.782;9.190;2023-06-26T02:27:19;17.48;;;8.23;;
24631;SDS011;59977;48.782;9.190;2023-06-26T02:29:45;14.18;;;8.07;;
24631;SDS011;59977;48.782;9.190;2023-06-26T02:32:11;12.82;;;7.40;;
24631;SDS011;59977;48.782;9.190;2023-06-26T02:34:37;10.43;;;7.22;;
24631;SDS011;59977;48.782;9.190;2023-06-26T02:37:03;12.60;;;7.60;;
24631;SDS011;59977;48.782;9.190;2023-06-26T02:39:32;11.27;;;7.47;;
24631;SDS011;59977;48.782;9.190;2023-06-26T02:41:58;8.98;;;6.93;;
24631;SDS011;59977;48.782;9.190;2023-06-26T02:44:24;10.35;;;7.68;;
24631;SDS011;59977;48.782;9.190;2023-06-26T02:46:50;21.00;;;7.13;;
24631;SDS011;59977;48.782;9.190;2023-06-26T02:49:16;8.15;;;6.45;;
24631;SDS011;59977;48.782;9.190;2023-06-26T02:51:42;11.15;;;6.53;;
24631;SDS011;59977;48.782;9.190;2023-06-26T02:54:08;10.65;;;7.15;;
24631;SDS011;59977;48.782;9.190;2023-06-26T02:56:34;8.55;;;6.90;;
24631;SDS011;59977;48.782;9.190;2023-06-26T02:59:00;9.27;;;6.88;;
24631;SDS011;59977;48.782;9.190;2023-06-26T03:01:26;9.90;;;6.78;;
24631;SDS011;59977;48.782;9.190;2023-06-26T03:03:52;12.32;;;7.15;;
24631;SDS011;59977;48.782;9.190;2023-06-26T03:06:18;9.40;;;6.55;;
24631;SDS011;59977;48.782;9.190;2023-06-26T03:08:44;10.80;;;6.22;;
24631;SDS011;59977;48.782;9.190;2023-06-26T03:11:10;9.98;;;6.72;;
24631;SDS011;59977;48.782;9.190;2023-06-26T03:13:36;9.25;;;6.43;;
24631;SDS011;59977;48.782;9.190;2023-06-26T03:16:05;13.52;;;6.75;;
24631;SDS011;59977;48.782;9.190;2023-06-26T03:18:31;11.40;;;7.32;;
24631;SDS011;59977;48.782;9.190;2023-06-26T03:20:58;12.90;;;6.60;;
24631;SDS011;59977;48.782;9.190;2023-06-26T03:23:25;12.55;;;7.35;;
24631;SDS011;59977;48.782;9.190;2023-06-26T03:25:51;10.13;;;7.03;;
24631;SDS011;59977;48.782;9.190;2023-06-26T03:28:17;11.52;;;7.28;;
24631;SDS011;59977;48.782;9.190;2023-06-26T03:30:43;8.13;;;6.50;;
24631;SDS011;59977;48.782;9.190;2023-06-26T03:33:09;12.57;;;6.40;;
24631;SDS011;59977;48.782;9.190;2023-06-26T03:35:35;8.52;;;6.63;;
24631;SDS011;59977;48.782;9.190;2023-06-26T03:38:01;10.55;;;6.80;;
24631;SDS011;59977;48.782;9.190;2023-06-26T03:40:27;7.78;;;6.25;;
24631;SDS011;59977;48.782;9.190;2023-06-26T03:42:53;9.35;;;6.88;;
24631;SDS011;59977;48.782;9.190;2023-06-26T03:45:19;7.90;;;6.68;;
24631;SDS011;59977;48.782;9.190;2023-06-26T03:47:45;8.85;;;7.00;;
24631;SDS011;59977;48.782;9.190;2023-06-26T03:50:18;11.32;;;6.60;;
24631;SDS011;59977;48.782;9.190;2023-06-26T03:52:44;10.20;;;7.10;;
24631;SDS011;59977;48.782;9.190;2023-06-26T03:55:10;9.25;;;6.68;;
24631;SDS011;59977;48.782;9.190;2023-06-26T03:57:36;10.07;;;7.00;;
24631;SDS011;59977;48.782;9.190;2023-06-26T04:00:03;8.45;;;6.50;;
24631;SDS011;59977;48.782;9.190;2023-06-26T04:02:36;9.50;;;6.57;;
24631;SDS011;59977;48.782;9.190;2023-06-26T04:05:02;9.23;;;6.55;;
24631;SDS011;59977;48.782;9.190;2023-06-26T04:07:29;9.88;;;6.80;;
24631;SDS011;59977;48.782;9.190;2023-06-26T04:09:56;10.48;;;6.10;;
24631;SDS011;59977;48.782;9.190;2023-06-26T04:12:22;10.20;;;7.00;;
24631;SDS011;59977;48.782;9.190;2023-06-26T04:14:48;8.13;;;6.25;;
24631;SDS011;59977;48.782;9.190;2023-06-26T04:17:14;13.35;;;6.57;;
24631;SDS011;59977;48.782;9.190;2023-06-26T04:19:40;10.73;;;6.85;;
24631;SDS011;59977;48.782;9.190;2023-06-26T04:22:06;9.95;;;6.63;;
24631;SDS011;59977;48.782;9.190;2023-06-26T04:24:32;11.35;;;7.25;;
24631;SDS011;59977;48.782;9.190;2023-06-26T04:26:58;11.88;;;7.97;;
24631;SDS011;59977;48.782;9.190;2023-06-26T04:29:26;16.20;;;8.93;;
24631;SDS011;59977;48.782;9.190;2023-06-26T04:31:52;13.05;;;8.55;;
24631;SDS011;59977;48.782;9.190;2023-06-26T04:34:31;12.83;;;7.80;;
24631;SDS011;59977;48.782;9.190;2023-06-26T04:37:00;17.33;;;8.55;;
24631;SDS011;59977;48.782;9.190;2023-06-26T04:39:28;16.90;;;8.90;;
24631;SDS011;59977;48.782;9.190;2023-06-26T04:41:55;27.38;;;9.15;;
24631;SDS011;59977;48.782;9.190;2023-06-26T04:44:21;14.32;;;8.88;;
24631;SDS011;59977;48.782;9.190;2023-06-26T04:46:47;15.77;;;8.70;;
24631;SDS011;59977;48.782;9.190;2023-06-26T04:49:13;11.88;;;8.48;;
24631;SDS011;59977;48.782;9.190;2023-06-26T04:51:42;14.68;;;8.98;;
24631;SDS011;59977;48.782;9.190;2023-06-26T04:54:09;13.77;;;8.75;;
24631;SDS011;59977;48.782;9.190;2023-06-26T04:56:36;13.95;;;8.85;;
24631;SDS011;59977;48.782;9.190;2023-06-26T04:59:04;13.40;;;8.65;;
24631;SDS011;59977;48.782;9.190;2023-06-26T05:01:30;14.55;;;8.45;;
24631;SDS011;59977;48.782;9.190;2023-06-26T05:03:57;16.77;;;8.98;;
24631;SDS011;59977;48.782;9.190;2023-06-26T05:06:23;14.10;;;8.63;;
24631;SDS011;59977;48.782;9.190;2023-06-26T05:08:49;12.43;;;8.43;;
24631;SDS011;59977;48.782;9.190;2023-06-26T05:11:15;15.93;;;9.15;;
24631;SDS011;59977;48.782;9.190;2023-06-26T05:13:41;14.10;;;7.90;;
24631;SDS011;59977;48.782;9.190;2023-06-26T05:16:08;11.75;;;7.97;;
24631;SDS011;59977;48.782;9.190;2023-06-26T05:18:34;11.77;;;8.05;;
24631;SDS011;59977;48.782;9.190;2023-06-26T05:21:00;12.38;;;7.60;;
24631;SDS011;59977;48.782;9.190;2023-06-26T05:23:26;12.52;;;7.95;;
24631;SDS011;59977;48.782;9.190;2023-06-26T05:25:52;25.85;;;8.50;;
24631;SDS011;59977;48.782;9.190;2023-06-26T05:28:19;13.75;;;7.95;;
24631;SDS011;59977;48.782;9.190;2023-06-26T05:30:45;12.13;;;8.50;;
24631;SDS011;59977;48.782;9.190;2023-06-26T05:33:11;19.27;;;8.50;;
24631;SDS011;59977;48.782;9.190;2023-06-26T05:35:38;14.40;;;8.27;;
24631;SDS011;59977;48.782;9.190;2023-06-26T05:38:04;14.80;;;7.95;;
24631;SDS011;59977;48.782;9.190;2023-06-26T05:40:31;18.67;;;8.68;;
24631;SDS011;59977;48.782;9.190;2023-06-26T05:42:59;15.25;;;8.45;;
24631;SDS011;59977;48.782;9.190;2023-06-26T05:45:24;17.08;;;8.43;;
24631;SDS011;59977;48.782;9.190;2023-06-26T05:47:50;16.27;;;8.32;;
24631;SDS011;59977;48.782;9.190;2023-06-26T05:50:17;13.02;;;7.88;;
24631;SDS011;59977;48.782;9.190;2023-06-26T05:52:43;16.20;;;8.40;;
24631;SDS011;59977;48.782;9.190;2023-06-26T05:55:09;12.77;;;8.82;;
24631;SDS011;59977;48.782;9.190;2023-06-26T05:57:36;19.98;;;8.32;;
24631;SDS011;59977;48.782;9.190;2023-06-26T06:00:03;19.13;;;8.38;;
24631;SDS011;59977;48.782;9.190;2023-06-26T06:02:31;15.68;;;8.63;;
24631;SDS011;59977;48.782;9.190;2023-06-26T06:04:57;17.25;;;8.82;;
24631;SDS011;59977;48.782;9.190;2023-06-26T06:07:24;14.00;;;9.25;;
24631;SDS011;59977;48.782;9.190;2023-06-26T06:09:50;22.15;;;8.32;;
24631;SDS011;59977;48.782;9.190;2023-06-26T06:12:16;15.77;;;8.45;;
24631;SDS011;59977;48.782;9.190;2023-06-26T06:14:42;18.00;;;8.38;;
24631;SDS011;59977;48.782;9.190;2023-06-26T06:17:08;11.68;;;7.65;;
24631;SDS011;59977;48.782;9.190;2023-06-26T06:19:34;13.07;;;8.02;;
24631;SDS011;59977;48.782;9.190;2023-06-26T06:22:00;15.35;;;8.32;;
24631;SDS011;59977;48.782;9.190;2023-06-26T06:24:26;12.05;;;7.68;;
24631;SDS011;59977;48.782;9.190;2023-06-26T06:26:52;11.88;;;8.15;;
24631;SDS011;59977;48.782;9.190;2023-06-26T06:29:18;18.15;;;7.65;;
24631;SDS011;59977;48.782;9.190;2023-06-26T06:31:44;18.38;;;7.60;;
24631;SDS011;59977;48.782;9.190;2023-06-26T06:34:11;15.27;;;7.97;;
24631;SDS011;59977;48.782;9.190;2023-06-26T06:36:38;15.45;;;8.18;;
24631;SDS011;59977;48.782;9.190;2023-06-26T06:39:04;18.00;;;8.25;;
24631;SDS011;59977;48.782;9.190;2023-06-26T06:41:30;15.95;;;7.78;;
24631;SDS011;59977;48.782;9.190;2023-06-26T06:43:56;20.45;;;8.07;;
24631;SDS011;59977;48.782;9.190;2023-06-26T06:46:22;16.90;;;7.63;;
24631;SDS011;59977;48.782;9.190;2023-06-26T06:48:48;14.10;;;7.80;;
24631;SDS011;59977;48.782;9.190;2023-06-26T06:51:14;18.23;;;8.23;;
24631;SDS011;59977;48.782;9.190;2023-06-26T06:53:40;14.43;;;7.18;;
24631;SDS011;59977;48.782;9.190;2023-06-26T06:56:06;13.07;;;7.88;;
24631;SDS011;59977;48.782;9.190;2023-06-26T06:58:31;15.88;;;7.40;;
24631;SDS011;59977;48.782;9.190;2023-06-26T07:00:59;13.10;;;7.60;;
24631;SDS011;59977;48.782;9.190;2023-06-26T07:03:25;18.65;;;8.38;;
24631;SDS011;59977;48.782;9.190;2023-06-26T07:05:51;13.68;;;7.50;;
24631;SDS011;59977;48.782;9.190;2023-06-26T07:08:17;15.55;;;8.55;;
24631;SDS011;59977;48.782;9.190;2023-06-26T07:10:44;19.48;;;8.40;;
24631;SDS011;59977;48.782;9.190;2023-06-26T07:13:09;13.90;;;7.75;;
24631;SDS011;59977;48.782;9.190;2023-06-26T07:15:35;13.48;;;7.85;;
24631;SDS011;59977;48.782;9.190;2023-06-26T07:18:02;14.18;;;7.45;;
24631;SDS011;59977;48.782;9.190;2023-06-26T07:20:28;16.58;;;7.28;;
24631;SDS011;59977;48.782;9.190;2023-06-26T07:22:54;20.38;;;8.35;;
24631;SDS011;59977;48.782;9.190;2023-06-26T07:25:20;15.68;;;7.30;;
24631;SDS011;59977;48.782;9.190;2023-06-26T07:27:45;18.58;;;7.53;;
24631;SDS011;59977;48.782;9.190;2023-06-26T07:30:12;24.60;;;7.72;;
24631;SDS011;59977;48.782;9.190;2023-06-26T07:32:38;21.35;;;8.25;;
24631;SDS011;59977;48.782;9.190;2023-06-26T07:35:05;15.63;;;7.10;;
24631;SDS011;59977;48.782;9.190;2023-06-26T07:37:31;11.95;;;7.50;;
24631;SDS011;59977;48.782;9.190;2023-06-26T07:39:57;11.90;;;7.05;;
24631;SDS011;59977;48.782;9.190;2023-06-26T07:42:23;15.43;;;7.28;;
24631;SDS011;59977;48.782;9.190;2023-06-26T07:44:49;15.63;;;6.72;;
24631;SDS011;59977;48.782;9.190;2023-06-26T07:47:15;31.92;;;7.15;;
24631;SDS011;59977;48.782;9.190;2023-06-26T07:49:41;16.23;;;7.22;;
24631;SDS011;59977;48.782;9.190;2023-06-26T07:52:07;14.85;;;7.65;;
24631;SDS011;59977;48.782;9.190;2023-06-26T07:54:36;14.65;;;6.28;;
24631;SDS011;59977;48.782;9.190;2023-06-26T07:57:03;17.77;;;7.22;;
24631;SDS011;59977;48.782;9.190;2023-06-26T07:59:32;21.95;;;6.70;;
24631;SDS011;59977;48.782;9.190;2023-06-26T08:01:58;16.42;;;7.07;;
24631;SDS011;59977;48.782;9.190;2023-06-26T08:04:25;12.63;;;7.00;;
24631;SDS011;59977;48.782;9.190;2023-06-26T08:06:53;14.23;;;6.65;;
24631;SDS011;59977;48.782;9.190;2023-06-26T08:09:22;10.77;;;6.63;;
24631;SDS011;59977;48.782;9.190;2023-06-26T08:11:49;10.95;;;6.40;;
24631;SDS011;59977;48.782;9.190;2023-06-26T08:14:15;17.85;;;6.35;;
24631;SDS011;59977;48.782;9.190;2023-06-26T08:16:42;12.77;;;6.70;;
24631;SDS011;59977;48.782;9.190;2023-06-26T08:19:09;11.43;;;5.85;;
24631;SDS011;59977;48.782;9.190;2023-06-26T08:21:35;18.40;;;6.10;;
24631;SDS011;59977;48.782;9.190;2023-06-26T08:24:01;11.40;;;5.75;;
24631;SDS011;59977;48.782;9.190;2023-06-26T08:26:27;19.10;;;6.40;;
24631;SDS011;59977;48.782;9.190;2023-06-26T08:28:53;16.08;;;6.55;;
24631;SDS011;59977;48.782;9.190;2023-06-26T08:31:19;16.83;;;6.28;;
24631;SDS011;59977;48.782;9.190;2023-06-26T08:33:46;12.32;;;6.75;;
24631;SDS011;59977;48.782;9.190;2023-06-26T08:36:12;9.95;;;5.78;;
24631;SDS011;59977;48.782;9.190;2023-06-26T08:38:38;10.85;;;5.53;;
24631;SDS011;59977;48.782;9.190;2023-06-26T08:41:07;13.38;;;5.50;;
24631;SDS011;59977;48.782;9.190;2023-06-26T08:43:34;13.20;;;4.90;;
24631;SDS011;59977;48.782;9.190;2023-06-26T08:46:00;9.77;;;4.90;;
24631;SDS011;59977;48.782;9.190;2023-06-26T08:48:26;8.30;;;4.80;;
24631;SDS011;59977;48.782;9.190;2023-06-26T08:50:54;8.18;;;4.68;;
24631;SDS011;59977;48.782;9.190;2023-06-26T08:55:47;17.08;;;4.75;;
24631;SDS011;59977;48.782;9.190;2023-06-26T08:58:15;13.68;;;4.85;;
24631;SDS011;59977;48.782;9.190;2023-06-26T09:00:41;5.18;;;4.25;;
24631;SDS011;59977;48.782;9.190;2023-06-26T09:03:07;9.13;;;4.90;;
24631;SDS011;59977;48.782;9.190;2023-06-26T09:05:34;6.32;;;4.50;;
24631;SDS011;59977;48.782;9.190;2023-06-26T09:08:01;7.88;;;4.50;;
24631;SDS011;59977;48.782;9.190;2023-06-26T09:10:27;11.63;;;4.55;;
24631;SDS011;59977;48.782;9.190;2023-06-26T09:12:56;9.82;;;4.95;;
24631;SDS011;59977;48.782;9.190;2023-06-26T09:15:26;13.52;;;5.00;;
24631;SDS011;59977;48.782;9.190;2023-06-26T09:17:57;10.48;;;4.95;;
24631;SDS011;59977;48.782;9.190;2023-06-26T09:20:24;6.38;;;4.53;;
24631;SDS011;59977;48.782;9.190;2023-06-26T09:22:53;11.88;;;4.82;;
24631;SDS011;59977;48.782;9.190;2023-06-26T09:25:20;7.25;;;4.45;;
24631;SDS011;59977;48.782;9.190;2023-06-26T09:27:48;5.93;;;4.63;;
24631;SDS011;59977;48.782;9.190;2023-06-26T09:30:16;6.40;;;4.90;;
24631;SDS011;59977;48.782;9.190;2023-06-26T09:32:43;6.63;;;4.82;;
24631;SDS011;59977;48.782;9.190;2023-06-26T09:35:10;6.47;;;4.63;;
24631;SDS011;59977;48.782;9.190;2023-06-26T09:37:36;15.13;;;4.60;;
24631;SDS011;59977;48.782;9.190;2023-06-26T09:40:03;7.40;;;4.45;;
24631;SDS011;59977;48.782;9.190;2023-06-26T09:42:33;10.57;;;4.35;;
24631;SDS011;59977;48.782;9.190;2023-06-26T09:44:59;8.57;;;4.20;;
24631;SDS011;59977;48.782;9.190;2023-06-26T09:47:26;8.95;;;4.45;;
24631;SDS011;59977;48.782;9.190;2023-06-26T09:49:55;8.60;;;4.63;;
24631;SDS011;59977;48.782;9.190;2023-06-26T09:52:21;6.43;;;4.88;;
24631;SDS011;59977;48.782;9.190;2023-06-26T09:54:48;10.20;;;4.40;;
24631;SDS011;59977;48.782;9.190;2023-06-26T09:57:18;8.00;;;4.80;;
24631;SDS011;59977;48.782;9.190;2023-06-26T09:59:44;8.10;;;4.80;;
24631;SDS011;59977;48.782;9.190;2023-06-26T10:02:11;10.27;;;5.10;;
24631;SDS011;59977;48.782;9.190;2023-06-26T10:04:37;5.82;;;4.60;;
24631;SDS011;59977;48.782;9.190;2023-06-26T10:07:04;11.57;;;4.60;;
24631;SDS011;59977;48.782;9.190;2023-06-26T10:09:31;14.32;;;5.18;;
24631;SDS011;59977;48.782;9.190;2023-06-26T10:11:59;5.43;;;4.57;;
24631;SDS011;59977;48.782;9.190;2023-06-26T10:14:27;9.60;;;4.90;;
24631;SDS011;59977;48.782;9.190;2023-06-26T10:16:57;9.00;;;4.78;;
24631;SDS011;59977;48.782;9.190;2023-06-26T10:19:24;11.30;;;5.35;;
24631;SDS011;59977;48.782;9.190;2023-06-26T10:21:54;13.43;;;5.70;;
24631;SDS011;59977;48.782;9.190;2023-06-26T10:24:20;8.50;;;5.47;;
24631;SDS011;59977;48.782;9.190;2023-06-26T10:26:49;15.95;;;5.22;;
24631;SDS011;59977;48.782;9.190;2023-06-26T10:29:16;8.55;;;5.40;;
24631;SDS011;59977;48.782;9.190;2023-06-26T10:31:44;11.43;;;5.65;;
24631;SDS011;59977;48.782;9.190;2023-06-26T10:34:12;9.65;;;5.65;;
24631;SDS011;59977;48.782;9.190;2023-06-26T10:36:38;19.33;;;6.03;;
24631;SDS011;59977;48.782;9.190;2023-06-26T10:39:06;9.95;;;5.90;;
24631;SDS011;59977;48.782;9.190;2023-06-26T10:44:40;9.25;;;5.65;;
24631;SDS011;59977;48.782;9.190;2023-06-26T10:47:08;16.88;;;6.20;;
24631;SDS011;59977;48.782;9.190;2023-06-26T10:49:35;16.92;;;6.05;;
24631;SDS011;59977;48.782;9.190;2023-06-26T10:52:13;11.32;;;5.70;;
24631;SDS011;59977;48.782;9.190;2023-06-26T10:54:40;12.07;;;4.80;;
24631;SDS011;59977;48.782;9.190;2023-06-26T10:57:09;24.45;;;5.95;;
24631;SDS011;59977;48.782;9.190;2023-06-26T11:02:12;8.95;;;5.45;;
24631;SDS011;59977;48.782;9.190;2023-06-26T11:04:38;12.55;;;6.00;;
24631;SDS011;59977;48.782;9.190;2023-06-26T11:10:02;22.65;;;5.85;;
24631;SDS011;59977;48.782;9.190;2023-06-26T11:12:33;15.30;;;5.78;;
24631;SDS011;59977;48.782;9.190;2023-06-26T11:15:00;9.73;;;5.45;;
24631;SDS011;59977;48.782;9.190;2023-06-26T11:17:27;19.00;;;6.85;;
24631;SDS011;59977;48.782;9.190;2023-06-26T11:19:54;43.65;;;6.28;;
24631;SDS011;59977;48.782;9.190;2023-06-26T11:22:21;20.67;;;6.38;;
24631;SDS011;59977;48.782;9.190;2023-06-26T11:24:47;12.07;;;5.35;;
24631;SDS011;59977;48.782;9.190;2023-06-26T11:27:14;12.25;;;5.78;;
24631;SDS011;59977;48.782;9.190;2023-06-26T11:29:46;22.67;;;7.03;;
24631;SDS011;59977;48.782;9.190;2023-06-26T11:32:13;11.77;;;5.72;;
24631;SDS011;59977;48.782;9.190;2023-06-26T11:34:40;10.63;;;5.97;;
24631;SDS011;59977;48.782;9.190;2023-06-26T11:37:08;11.25;;;5.85;;
24631;SDS011;59977;48.782;9.190;2023-06-26T11:39:34;14.38;;;5.78;;
24631;SDS011;59977;48.782;9.190;2023-06-26T11:42:02;9.13;;;5.60;;
24631;SDS011;59977;48.782;9.190;2023-06-26T11:44:29;7.53;;;5.78;;
24631;SDS011;59977;48.782;9.190;2023-06-26T11:46:56;20.30;;;5.85;;
24631;SDS011;59977;48.782;9.190;2023-06-26T11:49:22;13.85;;;6.20;;
24631;SDS011;59977;48.782;9.190;2023-06-26T11:51:50;13.43;;;5.65;;
24631;SDS011;59977;48.782;9.190;2023-06-26T11:54:22;10.45;;;6.00;;
24631;SDS011;59977;48.782;9.190;2023-06-26T11:56:57;10.68;;;5.45;;
24631;SDS011;59977;48.782;9.190;2023-06-26T11:59:23;10.30;;;5.78;;
24631;SDS011;59977;48.782;9.190;2023-06-26T12:01:50;18.17;;;7.32;;
24631;SDS011;59977;48.782;9.190;2023-06-26T12:04:18;24.60;;;6.30;;
24631;SDS011;59977;48.782;9.190;2023-06-26T12:06:46;13.43;;;5.70;;
24631;SDS011;59977;48.782;9.190;2023-06-26T12:09:13;12.30;;;5.68;;
24631;SDS011;59977;48.782;9.190;2023-06-26T12:11:41;13.20;;;5.22;;
24631;SDS011;59977;48.782;9.190;2023-06-26T12:14:08;16.08;;;5.47;;
24631;SDS011;59977;48.782;9.190;2023-06-26T12:16:35;10.90;;;5.78;;
24631;SDS011;59977;48.782;9.190;2023-06-26T12:19:02;12.98;;;5.90;;
24631;SDS011;59977;48.782;9.190;2023-06-26T12:24:17;13.07;;;5.45;;
24631;SDS011;59977;48.782;9.190;2023-06-26T12:26:44;13.63;;;5.53;;
24631;SDS011;59977;48.782;9.190;2023-06-26T12:29:11;12.20;;;5.97;;
24631;SDS011;59977;48.782;9.190;2023-06-26T12:31:44;8.75;;;5.47;;
24631;SDS011;59977;48.782;9.190;2023-06-26T12:34:12;11.15;;;5.45;;
24631;SDS011;59977;48.782;9.190;2023-06-26T12:36:40;12.90;;;5.47;;
24631;SDS011;59977;48.782;9.190;2023-06-26T12:39:08;12.38;;;5.63;;
24631;SDS011;59977;48.782;9.190;2023-06-26T12:41:43;12.02;;;5.70;;
24631;SDS011;59977;48.782;9.190;2023-06-26T12:44:17;8.63;;;5.75;;
24631;SDS011;59977;48.782;9.190;2023-06-26T12:46:45;12.93;;;5.70;;
24631;SDS011;59977;48.782;9.190;2023-06-26T12:49:12;10.45;;;5.35;;
24631;SDS011;59977;48.782;9.190;2023-06-26T12:51:38;22.35;;;5.95;;
24631;SDS011;59977;48.782;9.190;2023-06-26T12:54:05;8.73;;;5.60;;
24631;SDS011;59977;48.782;9.190;2023-06-26T12:56:31;15.50;;;5.90;;
24631;SDS011;59977;48.782;9.190;2023-06-26T12:58:57;13.35;;;5.55;;
24631;SDS011;59977;48.782;9.190;2023-06-26T13:01:23;8.43;;;5.20;;
24631;SDS011;59977;48.782;9.190;2023-06-26T13:03:49;17.65;;;5.80;;
24631;SDS011;59977;48.782;9.190;2023-06-26T13:06:19;17.52;;;5.50;;
24631;SDS011;59977;48.782;9.190;2023-06-26T13:08:45;15.70;;;5.45;;
24631;SDS011;59977;48.782;9.190;2023-06-26T13:11:11;7.93;;;5.25;;
24631;SDS011;59977;48.782;9.190;2023-06-26T13:13:37;8.23;;;5.35;;
24631;SDS011;59977;48.782;9.190;2023-06-26T13:16:03;12.07;;;5.50;;
24631;SDS011;59977;48.782;9.190;2023-06-26T13:18:30;16.05;;;5.70;;
24631;SDS011;59977;48.782;9.190;2023-06-26T13:20:56;18.77;;;5.78;;
24631;SDS011;59977;48.782;9.190;2023-06-26T13:23:22;21.85;;;5.32;;
24631;SDS011;59977;48.782;9.190;2023-06-26T13:25:48;15.65;;;5.40;;
24631;SDS011;59977;48.782;9.190;2023-06-26T13:28:15;25.95;;;6.05;;
24631;SDS011;59977;48.782;9.190;2023-06-26T13:30:41;9.20;;;4.85;;
24631;SDS011;59977;48.782;9.190;2023-06-26T13:33:07;8.82;;;4.63;;
24631;SDS011;59977;48.782;9.190;2023-06-26T13:35:35;10.95;;;4.32;;
24631;SDS011;59977;48.782;9.190;2023-06-26T13:38:01;20.42;;;5.28;;
24631;SDS011;59977;48.782;9.190;2023-06-26T13:40:27;14.95;;;4.90;;
24631;SDS011;59977;48.782;9.190;2023-06-26T13:42:53;14.90;;;4.82;;
24631;SDS011;59977;48.782;9.190;2023-06-26T13:45:19;10.18;;;5.05;;
24631;SDS011;59977;48.782;9.190;2023-06-26T13:47:45;13.60;;;4.80;;
24631;SDS011;59977;48.782;9.190;2023-06-26T13:50:11;11.80;;;4.65;;
24631;SDS011;59977;48.782;9.190;2023-06-26T13:52:37;11.90;;;4.43;;
24631;SDS011;59977;48.782;9.190;2023-06-26T13:55:04;6.13;;;4.60;;
24631;SDS011;59977;48.782;9.190;2023-06-26T13:57:30;13.20;;;4.68;;
24631;SDS011;59977;48.782;9.190;2023-06-26T13:59:56;12.82;;;4.90;;
24631;SDS011;59977;48.782;9.190;2023-06-26T14:02:22;12.95;;;4.60;;
24631;SDS011;59977;48.782;9.190;2023-06-26T14:04:48;20.88;;;4.45;;
24631;SDS011;59977;48.782;9.190;2023-06-26T14:07:14;15.25;;;4.50;;
24631;SDS011;59977;48.782;9.190;2023-06-26T14:09:40;11.30;;;4.10;;
24631;SDS011;59977;48.782;9.190;2023-06-26T14:12:07;7.57;;;3.55;;
24631;SDS011;59977;48.782;9.190;2023-06-26T14:14:33;6.18;;;4.00;;
24631;SDS011;59977;48.782;9.190;2023-06-26T14:16:59;11.07;;;4.05;;
24631;SDS011;59977;48.782;9.190;2023-06-26T14:19:25;12.15;;;3.85;;
24631;SDS011;59977;48.782;9.190;2023-06-26T14:21:52;16.00;;;4.03;;
24631;SDS011;59977;48.782;9.190;2023-06-26T14:24:18;6.40;;;3.33;;
24631;SDS011;59977;48.782;9.190;2023-06-26T14:26:44;15.07;;;3.90;;
24631;SDS011;59977;48.782;9.190;2023-06-26T14:29:10;8.30;;;3.15;;
24631;SDS011;59977;48.782;9.190;2023-06-26T14:31:37;14.27;;;3.72;;
24631;SDS011;59977;48.782;9.190;2023-06-26T14:34:03;6.82;;;3.17;;
24631;SDS011;59977;48.782;9.190;2023-06-26T14:36:29;11.20;;;3.53;;
24631;SDS011;59977;48.782;9.190;2023-06-26T14:38:58;11.77;;;3.38;;
24631;SDS011;59977;48.782;9.190;2023-06-26T14:41:24;5.50;;;3.20;;
24631;SDS011;59977;48.782;9.190;2023-06-26T14:43:50;10.27;;;3.08;;
24631;SDS011;59977;48.782;9.190;2023-06-26T14:46:17;14.82;;;3.00;;
24631;SDS011;59977;48.782;9.190;2023-06-26T14:48:43;11.40;;;3.30;;
24631;SDS011;59977;48.782;9.190;2023-06-26T14:51:10;15.98;;;3.25;;
24631;SDS011;59977;48.782;9.190;2023-06-26T14:53:36;7.55;;;3.30;;
24631;SDS011;59977;48.782;9.190;2023-06-26T14:56:02;7.88;;;2.67;;